Time;durP1;ratioP1;P1;durP2;ratioP2;P2;SDS_P1;SDS_P2;PMS_P1;PMS_P2;Temp;Humidity;BMP_temperature;BMP_pressure;BME280_temperature;BME280_humidity;BME280_pressure;Samples;Min_cycle;Max_cycle;Signal;HPM_P1;HPM_P2
2021/01/05 00:02:26;;;;;;;2.58;0.50;;;3.40;99.90;;;;;;10365111;28;20040;-52
2021/01/05 00:07:49;;;;;;;1.42;0.68;;;3.30;99.90;;;;;;10364164;28;20112;-52
2021/01/05 00:13:09;;;;;;;1.30;0.75;;;3.40;99.90;;;;;;10375994;28;20381;-52
2021/01/05 00:18:30;;;;;;;1.17;0.65;;;3.30;99.90;;;;;;10367094;28;20045;-52
2021/01/05 00:23:51;;;;;;;1.58;0.63;;;3.40;99.90;;;;;;10365493;28;20037;-52
2021/01/05 00:29:13;;;;;;;2.53;0.80;;;3.40;99.90;;;;;;10363520;28;20114;-52
2021/01/05 00:34:35;;;;;;;2.13;0.68;;;3.30;99.90;;;;;;10367258;28;20080;-52
2021/01/05 00:39:56;;;;;;;1.30;0.73;;;3.40;99.90;;;;;;10364736;28;20038;-52
2021/01/05 00:45:20;;;;;;;2.00;1.00;;;3.30;99.90;;;;;;10365556;28;20042;-52
2021/01/05 00:50:41;;;;;;;2.92;0.70;;;3.30;99.90;;;;;;10368923;28;20038;-52
2021/01/05 00:56:02;;;;;;;2.83;0.88;;;3.30;99.90;;;;;;10366705;28;20039;-52
2021/01/05 01:01:23;;;;;;;1.23;0.60;;;3.30;99.90;;;;;;10365343;28;20042;-52
2021/01/05 01:06:44;;;;;;;4.28;0.80;;;3.30;99.90;;;;;;10362022;28;20148;-52
2021/01/05 01:12:08;;;;;;;1.42;0.55;;;3.30;99.90;;;;;;10363231;28;20085;-52
2021/01/05 01:17:28;;;;;;;3.45;1.13;;;3.30;99.90;;;;;;10361416;28;20038;-52
2021/01/05 01:22:50;;;;;;;2.13;0.63;;;3.30;99.90;;;;;;10363309;28;20037;-52
2021/01/05 01:28:11;;;;;;;2.08;0.47;;;3.30;99.90;;;;;;10360771;28;20057;-52
2021/01/05 01:33:32;;;;;;;6.13;1.48;;;3.30;99.90;;;;;;10362905;28;20073;-52
2021/01/05 01:38:53;;;;;;;1.70;0.55;;;3.30;99.90;;;;;;10361705;28;20140;-52
2021/01/05 01:44:26;;;;;;;1.85;0.50;;;3.30;99.90;;;;;;10360862;28;20101;-52
2021/01/05 01:49:54;;;;;;;2.65;0.95;;;3.10;99.90;;;;;;10362836;28;20046;-52
2021/01/05 01:55:15;;;;;;;1.98;0.68;;;3.10;99.90;;;;;;10362510;28;20048;-52
2021/01/05 02:01:09;;;;;;;3.97;0.82;;;3.10;99.90;;;;;;10362670;28;20049;-52
2021/01/05 02:06:36;;;;;;;1.70;0.70;;;3.20;99.90;;;;;;10363037;28;20038;-52
2021/01/05 02:12:13;;;;;;;1.40;0.70;;;3.20;99.90;;;;;;10363755;28;20052;-52
2021/01/05 02:18:08;;;;;;;2.65;0.80;;;3.10;99.90;;;;;;10361889;28;20045;-52
2021/01/05 02:23:51;;;;;;;2.22;0.98;;;3.10;99.90;;;;;;10358519;28;20053;-52
2021/01/05 02:29:36;;;;;;;2.15;0.95;;;3.20;99.90;;;;;;10361103;28;20046;-52
2021/01/05 02:35:03;;;;;;;1.90;0.95;;;3.10;99.90;;;;;;10366969;28;20065;-52
2021/01/05 02:40:45;;;;;;;1.65;0.73;;;3.10;99.90;;;;;;10373158;28;20034;-52
2021/01/05 02:46:18;;;;;;;2.95;0.88;;;3.20;99.90;;;;;;10359328;28;20081;-52
2021/01/05 02:51:55;;;;;;;3.65;0.75;;;3.10;99.90;;;;;;10364252;28;20032;-52
2021/01/05 02:57:40;;;;;;;3.25;1.90;;;3.10;99.90;;;;;;10364162;28;20038;-52
2021/01/05 03:03:20;;;;;;;2.63;1.15;;;3.10;99.90;;;;;;10366242;28;20034;-52
2021/01/05 03:08:45;;;;;;;;;;;3.10;99.90;;;;;;10367168;28;20056;-52
2021/01/05 03:14:22;;;;;;;1.25;0.65;;;3.10;99.90;;;;;;10363191;28;19983;-52
2021/01/05 03:20:02;;;;;;;3.55;1.00;;;3.10;99.90;;;;;;10364217;28;20029;-52
2021/01/05 03:25:24;;;;;;;;;;;3.10;99.90;;;;;;10363082;28;20219;-52
2021/01/05 03:30:49;;;;;;;1.65;0.85;;;3.10;99.90;;;;;;10366601;28;19928;-52
2021/01/05 03:36:11;;;;;;;2.83;1.10;;;3.10;99.90;;;;;;10367031;28;20033;-52
2021/01/05 03:41:33;;;;;;;2.17;0.85;;;3.10;99.90;;;;;;10367982;28;20497;-52
2021/01/05 03:46:54;;;;;;;0.85;0.50;;;3.10;99.90;;;;;;10367773;28;20045;-52
2021/01/05 03:52:15;;;;;;;4.22;0.77;;;3.20;99.90;;;;;;10364852;28;20060;-52
2021/01/05 03:57:36;;;;;;;3.38;0.68;;;3.10;99.90;;;;;;10369169;28;20056;-52
2021/01/05 04:02:58;;;;;;;1.58;0.70;;;3.10;99.90;;;;;;10368212;28;20038;-52
2021/01/05 04:08:19;;;;;;;3.22;1.20;;;3.10;99.90;;;;;;10365556;28;20053;-52
2021/01/05 04:13:40;;;;;;;2.40;1.00;;;3.20;99.90;;;;;;10367709;28;20074;-52
2021/01/05 04:19:01;;;;;;;1.83;1.08;;;3.20;99.90;;;;;;10366878;28;20046;-52
2021/01/05 04:24:22;;;;;;;3.83;0.90;;;3.20;99.90;;;;;;10365860;28;20038;-52
2021/01/05 04:29:43;;;;;;;2.67;1.20;;;3.20;99.90;;;;;;10365757;28;20401;-52
2021/01/05 04:35:04;;;;;;;1.73;0.75;;;3.20;99.90;;;;;;10362353;28;20291;-52
2021/01/05 04:40:30;;;;;;;2.30;0.73;;;3.30;99.90;;;;;;10363252;28;20053;-52
2021/01/05 04:46:20;;;;;;;2.40;0.82;;;3.30;99.90;;;;;;10367120;28;20038;-52
2021/01/05 04:52:16;;;;;;;3.15;1.33;;;3.20;99.90;;;;;;10364777;28;20133;-52
2021/01/05 04:57:37;;;;;;;1.48;0.50;;;3.30;99.90;;;;;;10364088;28;20033;-52
2021/01/05 05:03:01;;;;;;;2.90;0.80;;;3.30;99.90;;;;;;10367499;28;20034;-52
2021/01/05 05:08:58;;;;;;;1.08;0.45;;;3.30;99.90;;;;;;10368572;28;21071;-52
2021/01/05 05:14:35;;;;;;;3.20;1.65;;;3.30;99.90;;;;;;10366067;28;20034;-52
2021/01/05 05:20:30;;;;;;;2.38;0.80;;;3.20;99.90;;;;;;10376389;28;20041;-52
2021/01/05 05:26:13;;;;;;;1.55;0.47;;;3.30;99.90;;;;;;10363794;28;20041;-52
2021/01/05 05:31:35;;;;;;;2.05;0.60;;;3.30;99.90;;;;;;10361256;28;20026;-52
2021/01/05 05:37:32;;;;;;;1.92;0.88;;;3.30;99.90;;;;;;10373099;28;20033;-52
2021/01/05 05:43:16;;;;;;;1.42;1.17;;;3.30;99.90;;;;;;10365807;28;20030;-52
2021/01/05 05:49:06;;;;;;;3.20;0.82;;;3.30;99.90;;;;;;10361939;28;20038;-52
2021/01/05 05:54:27;;;;;;;3.42;1.40;;;3.30;99.90;;;;;;10356586;28;20359;-52
2021/01/05 05:59:54;;;;;;;4.50;1.05;;;3.20;99.90;;;;;;10365146;28;20426;-52
2021/01/05 06:05:32;;;;;;;4.28;0.90;;;3.20;99.90;;;;;;10364402;28;20065;-52
2021/01/05 06:10:53;;;;;;;4.03;1.02;;;3.20;99.90;;;;;;10361572;28;20088;-52
2021/01/05 06:16:14;;;;;;;3.90;1.45;;;3.30;99.90;;;;;;10359648;28;20455;-53
2021/01/05 06:21:35;;;;;;;6.03;1.10;;;3.40;99.90;;;;;;10363319;28;20041;-52
2021/01/05 06:26:56;;;;;;;3.75;1.17;;;3.30;99.90;;;;;;10366152;28;20034;-52
2021/01/05 06:32:17;;;;;;;2.42;1.13;;;3.30;99.90;;;;;;10363085;28;20042;-52
2021/01/05 06:37:38;;;;;;;4.60;1.48;;;3.30;99.90;;;;;;10360961;28;20037;-52
2021/01/05 06:43:00;;;;;;;4.57;1.52;;;3.20;99.90;;;;;;10363728;28;20038;-52
2021/01/05 06:48:21;;;;;;;2.85;0.63;;;3.30;99.90;;;;;;10362302;28;20083;-52
2021/01/05 06:53:42;;;;;;;3.90;1.13;;;3.30;99.90;;;;;;10360920;28;20390;-52
2021/01/05 06:59:03;;;;;;;2.53;0.95;;;3.30;99.90;;;;;;10359696;28;20045;-52
2021/01/05 07:04:24;;;;;;;3.80;1.05;;;3.40;99.90;;;;;;10373022;28;20133;-52
2021/01/05 07:09:45;;;;;;;4.63;1.00;;;3.30;99.90;;;;;;10368159;28;20075;-52
2021/01/05 07:15:08;;;;;;;1.15;0.77;;;3.30;99.90;;;;;;10368815;28;20494;-52
2021/01/05 07:20:29;;;;;;;7.75;1.65;;;3.30;99.90;;;;;;10371129;28;20045;-52
2021/01/05 07:25:50;;;;;;;6.28;2.45;;;3.30;99.90;;;;;;10371231;28;20607;-52
2021/01/05 07:31:11;;;;;;;2.63;1.33;;;3.30;99.90;;;;;;10380273;28;20048;-52
2021/01/05 07:36:35;;;;;;;2.47;0.88;;;3.30;99.90;;;;;;10365993;28;20334;-52
2021/01/05 07:42:14;;;;;;;3.15;1.23;;;3.20;99.90;;;;;;10365286;28;20125;-52
2021/01/05 07:47:37;;;;;;;;;;;3.30;99.90;;;;;;10363905;28;20125;-52
2021/01/05 07:52:58;;;;;;;7.20;1.33;;;3.30;99.90;;;;;;10369288;28;20160;-52
2021/01/05 07:58:19;;;;;;;5.85;1.35;;;3.40;99.90;;;;;;10363840;28;20038;-52
2021/01/05 08:03:40;;;;;;;5.57;1.48;;;3.40;99.90;;;;;;10369034;28;20398;-51
2021/01/05 08:09:01;;;;;;;2.83;0.93;;;3.30;99.90;;;;;;10365610;28;20045;-52
2021/01/05 08:14:22;;;;;;;1.50;0.70;;;3.40;99.90;;;;;;10361811;28;21401;-52
2021/01/05 08:19:44;;;;;;;5.00;0.88;;;3.40;99.90;;;;;;10364081;28;20049;-52
2021/01/05 08:25:06;;;;;;;3.53;0.90;;;3.50;99.90;;;;;;10362616;28;20044;-52
2021/01/05 08:30:30;;;;;;;2.20;0.82;;;3.40;99.90;;;;;;10366625;28;20586;-52
2021/01/05 08:35:51;;;;;;;2.33;0.85;;;3.40;99.90;;;;;;10362897;28;20073;-52
2021/01/05 08:41:13;;;;;;;3.92;0.90;;;3.50;99.90;;;;;;10363799;28;20040;-52
2021/01/05 08:46:34;;;;;;;4.40;1.67;;;3.50;99.90;;;;;;10366487;28;20033;-52
2021/01/05 08:51:55;;;;;;;2.28;1.00;;;3.50;99.90;;;;;;10365699;28;20034;-52
2021/01/05 08:57:17;;;;;;;4.60;0.93;;;3.40;99.90;;;;;;10361584;28;22283;-52
2021/01/05 09:02:38;;;;;;;1.05;0.70;;;3.50;99.90;;;;;;10368435;28;20049;-52
2021/01/05 09:07:58;;;;;;;2.17;0.88;;;3.50;99.90;;;;;;10367745;28;20513;-52
2021/01/05 09:13:21;;;;;;;3.10;0.90;;;3.50;99.90;;;;;;10371847;28;20573;-52
2021/01/05 09:18:42;;;;;;;2.67;0.82;;;3.60;99.90;;;;;;10363227;28;20330;-52
2021/01/05 09:24:04;;;;;;;1.33;0.75;;;3.60;99.90;;;;;;10365108;28;20037;-52
2021/01/05 09:29:26;;;;;;;3.90;1.10;;;3.60;99.90;;;;;;10366968;28;20064;-52
2021/01/05 09:34:47;;;;;;;3.97;0.88;;;3.60;99.90;;;;;;10363331;28;20478;-52
2021/01/05 09:40:09;;;;;;;2.40;0.90;;;3.60;99.90;;;;;;10377247;28;20095;-52
2021/01/05 09:45:31;;;;;;;3.47;1.10;;;3.60;99.90;;;;;;10363502;28;20040;-52
2021/01/05 09:50:51;;;;;;;4.45;1.70;;;3.60;99.90;;;;;;10366599;28;20487;-52
2021/01/05 09:56:14;;;;;;;4.20;1.23;;;3.60;99.90;;;;;;10363690;28;20053;-52
2021/01/05 10:01:35;;;;;;;2.80;1.20;;;3.60;99.90;;;;;;10363259;28;20045;-52
2021/01/05 10:06:56;;;;;;;3.33;1.10;;;3.70;99.90;;;;;;10361441;28;20140;-52
2021/01/05 10:12:17;;;;;;;3.25;1.08;;;3.70;99.90;;;;;;10362320;28;20037;-52
2021/01/05 10:17:38;;;;;;;1.98;1.42;;;3.80;99.90;;;;;;10361010;28;20046;-52
2021/01/05 10:22:59;;;;;;;6.57;1.40;;;3.80;99.90;;;;;;10363110;28;20056;-52
2021/01/05 10:28:20;;;;;;;6.82;1.13;;;3.90;99.90;;;;;;10364732;28;20049;-52
2021/01/05 10:33:41;;;;;;;2.50;0.82;;;3.90;99.90;;;;;;10360719;28;20034;-52
2021/01/05 10:39:04;;;;;;;4.80;1.50;;;4.10;99.90;;;;;;10368515;28;20038;-52
2021/01/05 10:44:25;;;;;;;6.63;1.95;;;4.00;99.90;;;;;;10362485;28;20029;-52
2021/01/05 10:49:46;;;;;;;5.57;2.03;;;4.00;99.90;;;;;;10364045;28;20038;-52
2021/01/05 10:55:08;;;;;;;2.13;1.15;;;4.10;99.90;;;;;;10360913;28;20120;-52
2021/01/05 11:00:29;;;;;;;6.10;1.48;;;4.10;99.90;;;;;;10354665;28;20129;-52
2021/01/05 11:05:50;;;;;;;2.25;0.90;;;4.00;99.90;;;;;;10360394;28;20068;-52
2021/01/05 11:11:17;;;;;;;1.67;0.57;;;4.10;99.90;;;;;;10365846;28;20034;-52
2021/01/05 11:16:45;;;;;;;2.35;0.45;;;4.10;99.90;;;;;;10367179;28;20033;-52
2021/01/05 11:22:08;;;;;;;2.83;0.60;;;4.20;99.90;;;;;;10350010;28;20281;-52
2021/01/05 11:27:29;;;;;;;8.70;0.82;;;4.10;99.90;;;;;;10355694;28;20434;-52
2021/01/05 11:32:50;;;;;;;3.58;0.90;;;4.20;99.90;;;;;;10355596;28;20042;-52
2021/01/05 11:38:11;;;;;;;1.98;0.50;;;4.20;99.90;;;;;;10358600;28;20046;-52
2021/01/05 11:43:32;;;;;;;1.33;0.57;;;4.20;99.90;;;;;;10355459;28;20075;-52
2021/01/05 11:48:54;;;;;;;3.08;0.82;;;4.20;99.90;;;;;;10364515;28;20921;-52
2021/01/05 11:54:15;;;;;;;1.20;0.60;;;4.10;99.90;;;;;;10364551;28;20042;-52
2021/01/05 11:59:37;;;;;;;2.78;1.40;;;4.20;99.90;;;;;;10373013;28;20096;-52
2021/01/05 12:04:57;;;;;;;3.42;0.68;;;4.10;99.90;;;;;;10371263;28;20066;-52
2021/01/05 12:10:18;;;;;;;2.05;0.77;;;4.10;99.90;;;;;;10367814;28;20449;-52
2021/01/05 12:15:42;;;;;;;2.05;0.55;;;4.10;99.90;;;;;;10369577;28;20053;-54
2021/01/05 12:21:03;;;;;;;3.40;0.40;;;4.20;99.90;;;;;;10368221;28;20408;-52
2021/01/05 12:26:36;;;;;;;1.73;0.90;;;4.10;99.90;;;;;;10367331;28;20502;-52
2021/01/05 12:32:00;;;;;;;4.18;0.80;;;4.00;99.90;;;;;;10363011;28;20425;-52
2021/01/05 12:37:23;;;;;;;3.13;1.15;;;4.00;99.90;;;;;;10367608;28;20041;-52
2021/01/05 12:42:46;;;;;;;1.17;0.43;;;4.10;99.90;;;;;;10364564;28;20041;-52
2021/01/05 12:48:07;;;;;;;3.80;0.52;;;4.10;99.90;;;;;;10367091;28;20045;-52
2021/01/05 12:53:28;;;;;;;2.85;0.88;;;4.10;99.90;;;;;;10366323;28;20052;-52
2021/01/05 12:58:50;;;;;;;0.98;0.25;;;4.00;99.90;;;;;;10371632;28;20048;-52
2021/01/05 13:04:11;;;;;;;2.95;0.75;;;4.10;99.90;;;;;;10364353;28;20045;-52
2021/01/05 13:09:32;;;;;;;4.07;0.70;;;4.00;99.90;;;;;;10366940;28;20168;-52
2021/01/05 13:14:53;;;;;;;1.70;0.63;;;4.00;99.90;;;;;;10367454;28;20116;-52
2021/01/05 13:20:15;;;;;;;1.20;0.50;;;3.90;99.90;;;;;;10362569;28;20042;-52
2021/01/05 13:25:39;;;;;;;2.40;0.70;;;3.90;99.90;;;;;;10366364;28;20037;-52
2021/01/05 13:31:00;;;;;;;2.38;0.52;;;4.00;99.90;;;;;;10363653;28;20140;-52
2021/01/05 13:36:26;;;;;;;2.75;1.27;;;3.90;99.90;;;;;;10364903;28;20034;-52
2021/01/05 13:41:47;;;;;;;1.60;1.10;;;3.90;99.90;;;;;;10366341;28;20037;-52
2021/01/05 13:47:12;;;;;;;4.65;0.98;;;4.00;99.90;;;;;;10378472;28;20137;-52
2021/01/05 13:52:33;;;;;;;7.57;0.98;;;4.00;99.90;;;;;;10375738;28;20478;-52
2021/01/05 13:57:54;;;;;;;6.35;1.25;;;4.10;99.90;;;;;;10364206;28;20064;-52
2021/01/05 14:03:15;;;;;;;2.08;1.00;;;4.10;99.90;;;;;;10365177;28;20038;-52
2021/01/05 14:08:36;;;;;;;6.10;1.38;;;4.10;99.90;;;;;;10372284;28;20701;-52
2021/01/05 14:13:58;;;;;;;8.55;1.80;;;4.00;99.90;;;;;;10362141;28;20417;-52
2021/01/05 14:19:21;;;;;;;3.55;1.17;;;4.00;99.90;;;;;;10360325;28;20050;-52
2021/01/05 14:24:43;;;;;;;1.95;0.82;;;3.90;99.90;;;;;;10364233;28;20045;-52
2021/01/05 14:30:05;;;;;;;3.03;1.27;;;3.90;99.90;;;;;;10365288;28;20094;-52
2021/01/05 14:35:26;;;;;;;3.55;1.15;;;3.80;99.90;;;;;;10362393;28;20774;-52
2021/01/05 14:40:47;;;;;;;3.38;1.23;;;3.90;99.90;;;;;;10362427;28;20561;-52
2021/01/05 14:46:08;;;;;;;2.95;0.95;;;3.80;99.90;;;;;;10372669;28;20049;-52
2021/01/05 14:51:33;;;;;;;1.65;0.73;;;4.00;99.90;;;;;;10364654;28;20034;-52
2021/01/05 14:56:55;;;;;;;5.07;1.20;;;4.00;99.90;;;;;;10366293;28;20042;-52
2021/01/05 15:02:17;;;;;;;6.55;1.45;;;4.10;99.90;;;;;;10360150;28;20046;-52
2021/01/05 15:07:38;;;;;;;2.85;1.10;;;4.10;99.90;;;;;;10367590;28;20038;-52
2021/01/05 15:12:59;;;;;;;4.55;1.48;;;4.00;99.90;;;;;;10361598;28;20497;-52
2021/01/05 15:18:19;;;;;;;3.38;1.05;;;4.00;99.90;;;;;;10360126;28;20398;-52
2021/01/05 15:23:41;;;;;;;4.30;1.45;;;4.00;99.90;;;;;;10368567;28;20038;-52
2021/01/05 15:29:02;;;;;;;4.38;1.48;;;4.00;99.90;;;;;;10371698;28;20042;-52
2021/01/05 15:34:26;;;;;;;2.15;1.27;;;4.10;99.90;;;;;;10372305;28;20056;-52
2021/01/05 15:39:47;;;;;;;4.53;1.75;;;4.00;99.90;;;;;;10370950;28;20037;-52
2021/01/05 15:45:08;;;;;;;2.25;1.13;;;4.00;99.90;;;;;;10371829;28;20055;-52
2021/01/05 15:50:29;;;;;;;10.57;1.98;;;4.00;99.90;;;;;;10370351;28;20042;-52
2021/01/05 15:55:51;;;;;;;9.25;1.98;;;3.90;99.90;;;;;;10368416;28;20049;-52
2021/01/05 16:01:16;;;;;;;7.55;1.50;;;3.90;99.90;;;;;;10371222;28;20034;-52
2021/01/05 16:06:43;;;;;;;3.83;1.20;;;4.00;99.90;;;;;;10366783;28;20048;-52
2021/01/05 16:12:04;;;;;;;7.28;1.60;;;4.00;99.90;;;;;;10367716;28;20213;-52
2021/01/05 16:17:25;;;;;;;8.13;1.70;;;4.00;99.90;;;;;;10367893;28;20112;-52
2021/01/05 16:22:46;;;;;;;4.78;1.48;;;4.00;99.90;;;;;;10366448;28;20160;-52
2021/01/05 16:28:07;;;;;;;4.68;1.85;;;4.00;99.90;;;;;;10366078;28;20042;-52
2021/01/05 16:33:29;;;;;;;3.72;1.92;;;4.20;99.90;;;;;;10365406;28;20045;-52
2021/01/05 16:38:50;;;;;;;7.32;2.47;;;4.20;99.90;;;;;;10369693;28;20090;-52
2021/01/05 16:44:11;;;;;;;6.55;2.25;;;4.00;99.90;;;;;;10368138;28;20441;-52
2021/01/05 16:49:32;;;;;;;3.03;1.23;;;4.00;99.90;;;;;;10366280;28;20437;-52
2021/01/05 16:54:53;;;;;;;4.53;1.92;;;4.10;99.90;;;;;;10368275;28;20121;-52
2021/01/05 17:00:24;;;;;;;4.85;2.22;;;4.10;99.90;;;;;;10369603;28;20049;-52
2021/01/05 17:05:50;;;;;;;5.03;1.85;;;4.10;99.90;;;;;;10364397;28;20123;-52
2021/01/05 17:11:11;;;;;;;9.65;2.05;;;4.10;99.90;;;;;;10365257;28;20036;-52
2021/01/05 17:16:32;;;;;;;4.55;2.30;;;4.10;99.90;;;;;;10363175;28;20045;-52
2021/01/05 17:22:01;;;;;;;4.20;1.73;;;4.00;99.90;;;;;;10364883;28;20398;-51
2021/01/05 17:27:22;;;;;;;6.32;2.15;;;4.00;99.90;;;;;;10362246;28;20046;-51
2021/01/05 17:32:44;;;;;;;5.53;1.65;;;4.10;99.90;;;;;;10363025;28;20034;-51
2021/01/05 17:38:09;;;;;;;5.15;2.40;;;4.10;99.90;;;;;;10361002;28;20033;-51
2021/01/05 17:43:30;;;;;;;9.43;2.15;;;4.20;99.90;;;;;;10364010;28;20073;-51
2021/01/05 17:48:51;;;;;;;5.18;2.17;;;4.20;99.90;;;;;;10365636;28;20049;-52
2021/01/05 17:54:12;;;;;;;6.63;2.63;;;4.20;99.90;;;;;;10357355;28;20041;-52
2021/01/05 17:59:33;;;;;;;9.27;2.50;;;4.10;99.90;;;;;;10357478;28;20625;-52
2021/01/05 18:04:54;;;;;;;7.70;2.40;;;4.10;99.90;;;;;;10356122;28;21962;-52
2021/01/05 18:10:18;;;;;;;6.15;2.28;;;4.20;99.90;;;;;;10355153;28;20065;-52
2021/01/05 18:15:39;;;;;;;5.70;2.60;;;4.10;99.90;;;;;;10345289;28;20096;-52
2021/01/05 18:21:00;;;;;;;8.68;3.10;;;4.10;99.90;;;;;;10372283;28;20050;-52
2021/01/05 18:26:21;;;;;;;6.13;2.67;;;4.10;99.90;;;;;;10357445;28;20042;-52
2021/01/05 18:31:48;;;;;;;9.23;3.15;;;4.10;99.90;;;;;;10355773;28;20069;-52
2021/01/05 18:37:11;;;;;;;6.57;2.25;;;4.10;99.90;;;;;;10350021;28;20037;-52
2021/01/05 18:42:32;;;;;;;7.43;2.58;;;4.20;99.90;;;;;;10353060;28;20123;-52
2021/01/05 18:47:53;;;;;;;8.68;3.03;;;4.10;99.90;;;;;;10354300;28;20432;-52
2021/01/05 18:53:15;;;;;;;5.53;1.60;;;4.10;99.90;;;;;;10351030;28;20516;-52
2021/01/05 18:58:36;;;;;;;5.15;1.73;;;4.10;99.90;;;;;;10364584;28;20558;-52
2021/01/05 19:03:57;;;;;;;6.68;1.50;;;4.10;99.90;;;;;;10365627;28;20034;-52
2021/01/05 19:09:17;;;;;;;5.15;1.50;;;4.10;99.90;;;;;;10361344;28;20180;-52
2021/01/05 19:14:38;;;;;;;10.30;3.88;;;4.10;99.90;;;;;;10368079;28;20037;-52
2021/01/05 19:20:09;;;;;;;7.75;3.50;;;4.10;99.90;;;;;;10360533;28;20180;-52
2021/01/05 19:25:31;;;;;;;7.88;2.72;;;4.10;99.90;;;;;;10362761;28;20061;-52
2021/01/05 19:30:52;;;;;;;4.55;2.13;;;4.10;99.90;;;;;;10363939;28;20045;-52
2021/01/05 19:36:14;;;;;;;3.80;1.65;;;4.10;99.90;;;;;;10362259;28;20030;-52
2021/01/05 19:41:35;;;;;;;3.35;1.52;;;4.10;99.90;;;;;;10366246;28;20038;-52
2021/01/05 19:46:56;;;;;;;7.20;2.85;;;4.10;99.90;;;;;;10362419;28;20115;-52
2021/01/05 19:52:17;;;;;;;8.27;2.67;;;4.10;99.90;;;;;;10361240;28;20038;-52
2021/01/05 19:57:38;;;;;;;3.40;1.65;;;4.10;99.90;;;;;;10364912;28;21302;-52
2021/01/05 20:03:01;;;;;;;6.65;2.95;;;4.10;99.90;;;;;;10366021;28;20049;-52
2021/01/05 20:08:23;;;;;;;8.25;2.30;;;4.10;99.90;;;;;;10362140;28;20038;-52
2021/01/05 20:13:45;;;;;;;5.07;1.75;;;4.10;99.90;;;;;;10360712;28;20053;-52
2021/01/05 20:19:06;;;;;;;6.00;1.55;;;4.10;99.90;;;;;;10361604;28;20069;-52
2021/01/05 20:24:27;;;;;;;4.35;1.58;;;4.10;99.90;;;;;;10363456;28;20498;-52
2021/01/05 20:29:48;;;;;;;4.40;1.65;;;4.10;99.90;;;;;;10361530;28;20072;-52
2021/01/05 20:35:10;;;;;;;6.05;1.63;;;4.10;99.90;;;;;;10364521;28;20738;-52
2021/01/05 20:40:33;;;;;;;3.97;1.85;;;4.20;99.90;;;;;;10351662;28;20037;-52
2021/01/05 20:45:59;;;;;;;4.28;2.38;;;4.30;99.90;;;;;;10355989;28;20073;-52
2021/01/05 20:51:28;;;;;;;5.15;1.77;;;4.20;99.90;;;;;;10357477;28;20038;-52
2021/01/05 20:56:49;;;;;;;6.35;2.03;;;4.20;99.90;;;;;;10360634;28;20034;-52
2021/01/05 21:02:10;;;;;;;5.28;1.73;;;4.20;99.90;;;;;;10355858;28;20581;-52
2021/01/05 21:07:32;;;;;;;6.15;1.70;;;4.10;99.90;;;;;;10358311;28;20069;-52
2021/01/05 21:12:53;;;;;;;5.50;2.13;;;4.10;99.90;;;;;;10356927;28;20179;-52
2021/01/05 21:18:14;;;;;;;3.72;1.45;;;4.20;99.90;;;;;;10356005;28;20041;-52
2021/01/05 21:23:35;;;;;;;6.05;2.38;;;4.20;99.90;;;;;;10357223;28;20606;-52
2021/01/05 21:28:57;;;;;;;6.78;2.30;;;4.10;99.90;;;;;;10357660;28;20097;-52
2021/01/05 21:34:19;;;;;;;7.38;1.70;;;4.20;99.90;;;;;;10353383;28;20058;-52
2021/01/05 21:39:40;;;;;;;11.57;2.85;;;4.10;99.90;;;;;;10362009;28;20068;-52
2021/01/05 21:45:01;;;;;;;4.07;1.27;;;4.10;99.90;;;;;;10354038;28;20189;-52
2021/01/05 21:50:28;;;;;;;4.00;1.88;;;4.10;99.90;;;;;;10355214;28;20065;-52
2021/01/05 21:55:51;;;;;;;6.25;2.40;;;4.10;99.90;;;;;;10356056;28;20040;-52
2021/01/05 22:01:12;;;;;;;6.00;1.98;;;4.10;99.90;;;;;;10358393;28;20586;-52
2021/01/05 22:06:32;;;;;;;8.20;2.88;;;4.10;99.90;;;;;;10357887;28;20682;-52
2021/01/05 22:11:54;;;;;;;6.95;2.33;;;4.20;99.90;;;;;;10356781;28;20524;-52
2021/01/05 22:17:15;;;;;;;4.78;1.48;;;4.20;99.90;;;;;;10353375;28;20044;-52
2021/01/05 22:22:36;;;;;;;6.00;2.65;;;4.30;99.90;;;;;;10355724;28;20142;-52
2021/01/05 22:27:59;;;;;;;3.15;1.70;;;4.20;99.90;;;;;;10356875;28;20434;-52
2021/01/05 22:33:20;;;;;;;4.00;1.45;;;4.20;99.90;;;;;;10356197;28;20733;-52
2021/01/05 22:38:41;;;;;;;5.53;1.73;;;4.20;99.90;;;;;;10354488;28;20048;-52
2021/01/05 22:44:02;;;;;;;6.68;2.35;;;4.20;99.90;;;;;;10352989;28;20038;-52
2021/01/05 22:49:23;;;;;;;6.10;1.98;;;4.20;99.90;;;;;;10354792;28;20037;-52
2021/01/05 22:54:44;;;;;;;6.57;1.90;;;4.20;99.90;;;;;;10355279;28;20048;-52
2021/01/05 23:00:10;;;;;;;5.72;2.10;;;4.40;99.90;;;;;;10369067;28;20042;-52
2021/01/05 23:05:31;;;;;;;6.40;1.42;;;4.30;99.90;;;;;;10357512;28;20531;-52
2021/01/05 23:10:54;;;;;;;9.85;2.20;;;4.30;99.90;;;;;;10355846;28;20048;-52
2021/01/05 23:16:18;;;;;;;10.27;2.47;;;4.20;99.90;;;;;;10353200;28;20580;-52
2021/01/05 23:21:39;;;;;;;5.63;1.77;;;4.20;99.90;;;;;;10355351;28;20041;-52
2021/01/05 23:27:01;;;;;;;7.40;2.80;;;4.20;99.90;;;;;;10354008;28;20142;-52
2021/01/05 23:32:22;;;;;;;9.75;2.50;;;4.20;99.90;;;;;;10355802;28;20502;-52
2021/01/05 23:37:43;;;;;;;8.38;1.90;;;4.20;99.90;;;;;;10353379;28;20068;-52
2021/01/05 23:43:04;;;;;;;4.18;1.63;;;4.20;99.90;;;;;;10358106;28;20030;-52
2021/01/05 23:48:26;;;;;;;6.82;2.20;;;4.20;99.90;;;;;;10360753;28;20112;-52
2021/01/05 23:53:47;;;;;;;8.18;1.88;;;4.10;99.90;;;;;;10360242;28;20108;-52
2021/01/05 23:59:08;;;;;;;5.70;1.52;;;4.10;99.90;;;;;;10359887;28;20056;-52
